sensor_id;sensor_type;location;lat;lon;timestamp;temperature;humidity
43858;DHT22;29507;51.284;5.758;2023-04-15T00:00:06;5.50;99.90
43858;DHT22;29507;51.284;5.758;2023-04-15T00:02:32;5.50;99.90
43858;DHT22;29507;51.284;5.758;2023-04-15T00:04:57;5.50;99.90
43858;DHT22;29507;51.284;5.758;2023-04-15T00:07:23;5.50;99.90
43858;DHT22;29507;51.284;5.758;2023-04-15T00:09:49;5.50;99.90
43858;DHT22;29507;51.284;5.758;2023-04-15T00:12:14;5.50;99.90
43858;DHT22;29507;51.284;5.758;2023-04-15T00:14:40;5.50;99.90
43858;DHT22;29507;51.284;5.758;2023-04-15T00:17:06;5.40;99.90
43858;DHT22;29507;51.284;5.758;2023-04-15T00:19:31;5.40;99.90
43858;DHT22;29507;51.284;5.758;2023-04-15T00:21:58;5.30;99.90
43858;DHT22;29507;51.284;5.758;2023-04-15T00:24:24;5.30;99.90
43858;DHT22;29507;51.284;5.758;2023-04-15T00:26:49;5.20;99.90
43858;DHT22;29507;51.284;5.758;2023-04-15T00:29:15;5.20;99.90
43858;DHT22;29507;51.284;5.758;2023-04-15T00:31:40;5.10;99.90
43858;DHT22;29507;51.284;5.758;2023-04-15T00:34:06;5.10;99.90
43858;DHT22;29507;51.284;5.758;2023-04-15T00:36:32;5.10;99.90
43858;DHT22;29507;51.284;5.758;2023-04-15T00:38:59;5.10;99.90
43858;DHT22;29507;51.284;5.758;2023-04-15T00:41:25;5.10;99.90
43858;DHT22;29507;51.284;5.758;2023-04-15T00:43:50;4.90;99.90
43858;DHT22;29507;51.284;5.758;2023-04-15T00:46:17;4.90;99.90
43858;DHT22;29507;51.284;5.758;2023-04-15T00:48:45;4.90;99.90
43858;DHT22;29507;51.284;5.758;2023-04-15T00:51:11;4.80;99.90
43858;DHT22;29507;51.284;5.758;2023-04-15T00:53:37;4.70;99.90
43858;DHT22;29507;51.284;5.758;2023-04-15T00:56:03;4.60;99.90
43858;DHT22;29507;51.284;5.758;2023-04-15T00:58:28;4.50;99.90
43858;DHT22;29507;51.284;5.758;2023-04-15T01:00:55;4.50;99.90
43858;DHT22;29507;51.284;5.758;2023-04-15T01:03:21;4.50;99.90
43858;DHT22;29507;51.284;5.758;2023-04-15T01:05:47;4.50;99.90
43858;DHT22;29507;51.284;5.758;2023-04-15T01:08:13;4.50;99.90
43858;DHT22;29507;51.284;5.758;2023-04-15T01:10:39;4.50;99.90
43858;DHT22;29507;51.284;5.758;2023-04-15T01:13:04;4.40;99.90
43858;DHT22;29507;51.284;5.758;2023-04-15T01:15:31;4.40;99.90
43858;DHT22;29507;51.284;5.758;2023-04-15T01:18:01;4.40;99.90
43858;DHT22;29507;51.284;5.758;2023-04-15T01:20:28;4.30;99.90
43858;DHT22;29507;51.284;5.758;2023-04-15T01:22:54;4.30;99.90
43858;DHT22;29507;51.284;5.758;2023-04-15T01:25:46;4.20;99.90
43858;DHT22;29507;51.284;5.758;2023-04-15T01:28:13;4.10;99.90
43858;DHT22;29507;51.284;5.758;2023-04-15T01:30:39;4.10;99.90
43858;DHT22;29507;51.284;5.758;2023-04-15T01:33:04;4.10;99.90
43858;DHT22;29507;51.284;5.758;2023-04-15T01:35:31;4.10;99.90
43858;DHT22;29507;51.284;5.758;2023-04-15T01:38:02;4.10;99.90
43858;DHT22;29507;51.284;5.758;2023-04-15T01:40:29;4.00;99.90
43858;DHT22;29507;51.284;5.758;2023-04-15T01:42:55;4.00;99.90
43858;DHT22;29507;51.284;5.758;2023-04-15T01:45:20;3.90;99.90
43858;DHT22;29507;51.284;5.758;2023-04-15T01:47:46;3.80;99.90
43858;DHT22;29507;51.284;5.758;2023-04-15T01:50:12;3.80;99.90
43858;DHT22;29507;51.284;5.758;2023-04-15T01:52:38;3.70;99.90
43858;DHT22;29507;51.284;5.758;2023-04-15T01:55:04;3.60;99.90
43858;DHT22;29507;51.284;5.758;2023-04-15T01:57:30;3.60;99.90
43858;DHT22;29507;51.284;5.758;2023-04-15T01:59:56;3.50;99.90
43858;DHT22;29507;51.284;5.758;2023-04-15T02:02:22;3.50;99.90
43858;DHT22;29507;51.284;5.758;2023-04-15T02:04:47;3.50;99.90
43858;DHT22;29507;51.284;5.758;2023-04-15T02:07:13;3.50;99.90
43858;DHT22;29507;51.284;5.758;2023-04-15T02:09:38;3.60;99.90
43858;DHT22;29507;51.284;5.758;2023-04-15T02:12:04;3.60;99.90
43858;DHT22;29507;51.284;5.758;2023-04-15T02:14:30;3.60;99.90
43858;DHT22;29507;51.284;5.758;2023-04-15T02:16:56;3.50;99.90
43858;DHT22;29507;51.284;5.758;2023-04-15T02:19:21;3.50;99.90
43858;DHT22;29507;51.284;5.758;2023-04-15T02:21:47;3.40;99.90
43858;DHT22;29507;51.284;5.758;2023-04-15T02:24:12;3.40;99.90
43858;DHT22;29507;51.284;5.758;2023-04-15T02:26:38;3.40;99.90
43858;DHT22;29507;51.284;5.758;2023-04-15T02:29:04;3.40;99.90
43858;DHT22;29507;51.284;5.758;2023-04-15T02:31:29;3.40;99.90
43858;DHT22;29507;51.284;5.758;2023-04-15T02:33:58;3.40;99.90
43858;DHT22;29507;51.284;5.758;2023-04-15T02:36:24;3.30;99.90
43858;DHT22;29507;51.284;5.758;2023-04-15T02:38:51;3.30;99.90
43858;DHT22;29507;51.284;5.758;2023-04-15T02:41:17;3.30;99.90
43858;DHT22;29507;51.284;5.758;2023-04-15T02:43:43;3.30;99.90
43858;DHT22;29507;51.284;5.758;2023-04-15T02:46:08;3.30;99.90
43858;DHT22;29507;51.284;5.758;2023-04-15T02:48:37;3.30;99.90
43858;DHT22;29507;51.284;5.758;2023-04-15T02:51:15;3.30;99.90
43858;DHT22;29507;51.284;5.758;2023-04-15T02:53:41;3.40;99.90
43858;DHT22;29507;51.284;5.758;2023-04-15T02:56:07;3.40;99.90
43858;DHT22;29507;51.284;5.758;2023-04-15T02:58:34;3.50;99.90
43858;DHT22;29507;51.284;5.758;2023-04-15T03:01:00;3.40;99.90
43858;DHT22;29507;51.284;5.758;2023-04-15T03:03:26;3.30;99.90
43858;DHT22;29507;51.284;5.758;2023-04-15T03:05:52;3.30;99.90
43858;DHT22;29507;51.284;5.758;2023-04-15T03:08:19;3.40;99.90
43858;DHT22;29507;51.284;5.758;2023-04-15T03:10:45;3.40;99.90
43858;DHT22;29507;51.284;5.758;2023-04-15T03:13:11;3.50;99.90
43858;DHT22;29507;51.284;5.758;2023-04-15T03:15:37;3.40;99.90
43858;DHT22;29507;51.284;5.758;2023-04-15T03:18:03;3.40;99.90
43858;DHT22;29507;51.284;5.758;2023-04-15T03:20:28;3.50;99.90
43858;DHT22;29507;51.284;5.758;2023-04-15T03:22:54;3.40;99.90
43858;DHT22;29507;51.284;5.758;2023-04-15T03:25:19;3.20;99.90
43858;DHT22;29507;51.284;5.758;2023-04-15T03:27:46;3.10;99.90
43858;DHT22;29507;51.284;5.758;2023-04-15T03:30:11;3.10;99.90
43858;DHT22;29507;51.284;5.758;2023-04-15T03:32:37;3.10;99.90
43858;DHT22;29507;51.284;5.758;2023-04-15T03:35:03;3.10;99.90
43858;DHT22;29507;51.284;5.758;2023-04-15T03:37:29;3.10;99.90
43858;DHT22;29507;51.284;5.758;2023-04-15T03:39:54;3.00;99.90
43858;DHT22;29507;51.284;5.758;2023-04-15T03:42:20;2.90;99.90
43858;DHT22;29507;51.284;5.758;2023-04-15T03:44:46;2.90;99.90
43858;DHT22;29507;51.284;5.758;2023-04-15T03:47:11;2.90;99.90
43858;DHT22;29507;51.284;5.758;2023-04-15T03:49:37;2.90;99.90
43858;DHT22;29507;51.284;5.758;2023-04-15T03:52:03;2.80;99.90
43858;DHT22;29507;51.284;5.758;2023-04-15T03:54:28;2.90;99.90
43858;DHT22;29507;51.284;5.758;2023-04-15T03:56:54;3.00;99.90
43858;DHT22;29507;51.284;5.758;2023-04-15T03:59:21;3.00;99.90
43858;DHT22;29507;51.284;5.758;2023-04-15T04:01:46;3.00;99.90
43858;DHT22;29507;51.284;5.758;2023-04-15T04:04:12;2.90;99.90
43858;DHT22;29507;51.284;5.758;2023-04-15T04:06:38;2.90;99.90
43858;DHT22;29507;51.284;5.758;2023-04-15T04:09:03;2.90;99.90
43858;DHT22;29507;51.284;5.758;2023-04-15T04:11:29;3.00;99.90
43858;DHT22;29507;51.284;5.758;2023-04-15T04:13:55;3.10;99.90
43858;DHT22;29507;51.284;5.758;2023-04-15T04:16:20;3.10;99.90
43858;DHT22;29507;51.284;5.758;2023-04-15T04:18:46;3.10;99.90
43858;DHT22;29507;51.284;5.758;2023-04-15T04:21:12;3.10;99.90
43858;DHT22;29507;51.284;5.758;2023-04-15T04:23:37;3.00;99.90
43858;DHT22;29507;51.284;5.758;2023-04-15T04:26:03;3.00;99.90
43858;DHT22;29507;51.284;5.758;2023-04-15T04:28:28;3.00;99.90
43858;DHT22;29507;51.284;5.758;2023-04-15T04:30:54;3.00;99.90
43858;DHT22;29507;51.284;5.758;2023-04-15T04:33:20;3.00;99.90
43858;DHT22;29507;51.284;5.758;2023-04-15T04:35:46;2.90;99.90
43858;DHT22;29507;51.284;5.758;2023-04-15T04:38:11;2.90;99.90
43858;DHT22;29507;51.284;5.758;2023-04-15T04:40:37;2.80;99.90
43858;DHT22;29507;51.284;5.758;2023-04-15T04:43:03;2.80;99.90
43858;DHT22;29507;51.284;5.758;2023-04-15T04:45:28;2.80;99.90
43858;DHT22;29507;51.284;5.758;2023-04-15T04:47:54;2.80;99.90
43858;DHT22;29507;51.284;5.758;2023-04-15T04:50:19;2.80;99.90
43858;DHT22;29507;51.284;5.758;2023-04-15T04:52:45;2.80;99.90
43858;DHT22;29507;51.284;5.758;2023-04-15T04:55:11;2.80;99.90
43858;DHT22;29507;51.284;5.758;2023-04-15T04:57:36;2.90;99.90
43858;DHT22;29507;51.284;5.758;2023-04-15T05:00:05;2.90;99.90
43858;DHT22;29507;51.284;5.758;2023-04-15T05:02:30;3.00;99.90
43858;DHT22;29507;51.284;5.758;2023-04-15T05:04:56;3.10;99.90
43858;DHT22;29507;51.284;5.758;2023-04-15T05:07:22;3.20;99.90
43858;DHT22;29507;51.284;5.758;2023-04-15T05:09:48;3.20;99.90
43858;DHT22;29507;51.284;5.758;2023-04-15T05:12:14;3.30;99.90
43858;DHT22;29507;51.284;5.758;2023-04-15T05:14:40;3.30;99.90
43858;DHT22;29507;51.284;5.758;2023-04-15T05:17:07;3.40;99.90
43858;DHT22;29507;51.284;5.758;2023-04-15T05:19:33;3.40;99.90
43858;DHT22;29507;51.284;5.758;2023-04-15T05:21:59;3.40;99.90
43858;DHT22;29507;51.284;5.758;2023-04-15T05:24:24;3.40;99.90
43858;DHT22;29507;51.284;5.758;2023-04-15T05:26:50;3.40;99.90
43858;DHT22;29507;51.284;5.758;2023-04-15T05:29:16;3.50;99.90
43858;DHT22;29507;51.284;5.758;2023-04-15T05:31:42;3.60;99.90
43858;DHT22;29507;51.284;5.758;2023-04-15T05:34:07;3.70;99.90
43858;DHT22;29507;51.284;5.758;2023-04-15T05:36:33;3.70;99.90
43858;DHT22;29507;51.284;5.758;2023-04-15T05:38:59;3.80;99.90
43858;DHT22;29507;51.284;5.758;2023-04-15T05:41:25;3.90;99.90
43858;DHT22;29507;51.284;5.758;2023-04-15T05:43:50;3.90;99.90
43858;DHT22;29507;51.284;5.758;2023-04-15T05:46:16;4.00;99.90
43858;DHT22;29507;51.284;5.758;2023-04-15T05:48:41;4.00;99.90
43858;DHT22;29507;51.284;5.758;2023-04-15T05:51:07;4.10;99.90
43858;DHT22;29507;51.284;5.758;2023-04-15T05:53:36;4.10;99.90
43858;DHT22;29507;51.284;5.758;2023-04-15T05:56:02;4.20;99.90
43858;DHT22;29507;51.284;5.758;2023-04-15T05:58:28;4.20;99.90
43858;DHT22;29507;51.284;5.758;2023-04-15T06:00:53;4.30;99.90
43858;DHT22;29507;51.284;5.758;2023-04-15T06:03:19;4.40;99.90
43858;DHT22;29507;51.284;5.758;2023-04-15T06:05:44;4.50;99.90
43858;DHT22;29507;51.284;5.758;2023-04-15T06:08:10;4.50;99.90
43858;DHT22;29507;51.284;5.758;2023-04-15T06:10:36;4.60;99.90
43858;DHT22;29507;51.284;5.758;2023-04-15T06:13:03;4.70;99.90
43858;DHT22;29507;51.284;5.758;2023-04-15T06:15:29;4.80;99.90
43858;DHT22;29507;51.284;5.758;2023-04-15T06:17:55;4.80;99.90
43858;DHT22;29507;51.284;5.758;2023-04-15T06:20:20;4.90;99.90
43858;DHT22;29507;51.284;5.758;2023-04-15T06:22:46;4.90;99.90
43858;DHT22;29507;51.284;5.758;2023-04-15T06:25:12;5.00;99.90
43858;DHT22;29507;51.284;5.758;2023-04-15T06:27:37;5.00;99.90
43858;DHT22;29507;51.284;5.758;2023-04-15T06:30:04;5.10;99.90
43858;DHT22;29507;51.284;5.758;2023-04-15T06:32:29;5.10;99.90
43858;DHT22;29507;51.284;5.758;2023-04-15T06:34:56;5.20;99.90
43858;DHT22;29507;51.284;5.758;2023-04-15T06:37:21;5.30;99.90
43858;DHT22;29507;51.284;5.758;2023-04-15T06:39:47;5.40;99.90
43858;DHT22;29507;51.284;5.758;2023-04-15T06:42:13;5.50;99.90
43858;DHT22;29507;51.284;5.758;2023-04-15T06:44:38;5.70;99.90
43858;DHT22;29507;51.284;5.758;2023-04-15T06:47:04;5.80;99.90
43858;DHT22;29507;51.284;5.758;2023-04-15T06:49:30;6.00;99.90
43858;DHT22;29507;51.284;5.758;2023-04-15T06:51:56;6.20;99.90
43858;DHT22;29507;51.284;5.758;2023-04-15T06:54:22;6.60;99.90
43858;DHT22;29507;51.284;5.758;2023-04-15T06:56:47;7.00;99.90
43858;DHT22;29507;51.284;5.758;2023-04-15T06:59:13;7.60;99.90
43858;DHT22;29507;51.284;5.758;2023-04-15T07:01:42;8.00;99.90
43858;DHT22;29507;51.284;5.758;2023-04-15T07:04:07;8.80;99.90
43858;DHT22;29507;51.284;5.758;2023-04-15T07:06:33;9.40;99.90
43858;DHT22;29507;51.284;5.758;2023-04-15T07:09:00;10.20;99.90
43858;DHT22;29507;51.284;5.758;2023-04-15T07:11:26;10.50;99.90
43858;DHT22;29507;51.284;5.758;2023-04-15T07:13:51;10.60;99.90
43858;DHT22;29507;51.284;5.758;2023-04-15T07:16:17;10.70;99.90
43858;DHT22;29507;51.284;5.758;2023-04-15T07:18:42;10.50;99.90
43858;DHT22;29507;51.284;5.758;2023-04-15T07:21:08;10.30;99.90
43858;DHT22;29507;51.284;5.758;2023-04-15T07:23:34;10.30;99.90
43858;DHT22;29507;51.284;5.758;2023-04-15T07:26:00;10.60;99.90
43858;DHT22;29507;51.284;5.758;2023-04-15T07:28:26;10.80;99.90
43858;DHT22;29507;51.284;5.758;2023-04-15T07:30:52;11.20;99.90
43858;DHT22;29507;51.284;5.758;2023-04-15T07:33:17;11.70;99.90
43858;DHT22;29507;51.284;5.758;2023-04-15T07:35:43;12.10;99.90
43858;DHT22;29507;51.284;5.758;2023-04-15T07:38:09;12.50;99.90
43858;DHT22;29507;51.284;5.758;2023-04-15T07:40:37;12.90;99.90
43858;DHT22;29507;51.284;5.758;2023-04-15T07:43:04;13.20;99.90
43858;DHT22;29507;51.284;5.758;2023-04-15T07:45:30;13.10;99.90
43858;DHT22;29507;51.284;5.758;2023-04-15T07:47:55;12.90;99.90
43858;DHT22;29507;51.284;5.758;2023-04-15T07:50:21;12.60;99.90
43858;DHT22;29507;51.284;5.758;2023-04-15T07:52:48;12.40;99.90
43858;DHT22;29507;51.284;5.758;2023-04-15T07:55:14;12.30;99.90
43858;DHT22;29507;51.284;5.758;2023-04-15T07:57:43;12.10;99.90
43858;DHT22;29507;51.284;5.758;2023-04-15T08:00:09;12.10;99.90
43858;DHT22;29507;51.284;5.758;2023-04-15T08:02:35;12.40;99.90
43858;DHT22;29507;51.284;5.758;2023-04-15T08:05:01;13.20;99.90
43858;DHT22;29507;51.284;5.758;2023-04-15T08:07:29;14.00;99.90
43858;DHT22;29507;51.284;5.758;2023-04-15T08:09:54;14.50;99.90
43858;DHT22;29507;51.284;5.758;2023-04-15T08:12:21;14.70;99.90
43858;DHT22;29507;51.284;5.758;2023-04-15T08:14:46;14.80;99.90
43858;DHT22;29507;51.284;5.758;2023-04-15T08:17:12;15.00;99.60
43858;DHT22;29507;51.284;5.758;2023-04-15T08:19:38;15.00;99.00
43858;DHT22;29507;51.284;5.758;2023-04-15T08:22:04;15.00;99.10
43858;DHT22;29507;51.284;5.758;2023-04-15T08:24:30;15.20;99.40
43858;DHT22;29507;51.284;5.758;2023-04-15T08:26:56;15.10;98.10
43858;DHT22;29507;51.284;5.758;2023-04-15T08:29:22;14.90;97.20
43858;DHT22;29507;51.284;5.758;2023-04-15T08:31:47;14.80;97.90
43858;DHT22;29507;51.284;5.758;2023-04-15T08:34:14;14.60;97.70
43858;DHT22;29507;51.284;5.758;2023-04-15T08:36:40;14.40;97.80
43858;DHT22;29507;51.284;5.758;2023-04-15T08:39:06;14.40;98.20
43858;DHT22;29507;51.284;5.758;2023-04-15T08:41:41;14.60;98.20
43858;DHT22;29507;51.284;5.758;2023-04-15T08:44:10;14.50;96.70
43858;DHT22;29507;51.284;5.758;2023-04-15T08:46:37;14.10;97.30
43858;DHT22;29507;51.284;5.758;2023-04-15T08:49:04;13.80;98.20
43858;DHT22;29507;51.284;5.758;2023-04-15T08:51:30;13.70;98.30
43858;DHT22;29507;51.284;5.758;2023-04-15T08:53:56;13.70;98.70
43858;DHT22;29507;51.284;5.758;2023-04-15T08:56:24;13.70;98.50
43858;DHT22;29507;51.284;5.758;2023-04-15T08:58:51;13.80;98.60
43858;DHT22;29507;51.284;5.758;2023-04-15T09:01:17;13.80;97.40
43858;DHT22;29507;51.284;5.758;2023-04-15T09:03:43;13.60;97.40
43858;DHT22;29507;51.284;5.758;2023-04-15T09:06:11;13.60;97.50
43858;DHT22;29507;51.284;5.758;2023-04-15T09:08:36;13.80;98.80
43858;DHT22;29507;51.284;5.758;2023-04-15T09:11:02;14.00;97.30
43858;DHT22;29507;51.284;5.758;2023-04-15T09:13:28;14.10;96.60
43858;DHT22;29507;51.284;5.758;2023-04-15T09:15:55;13.90;96.70
43858;DHT22;29507;51.284;5.758;2023-04-15T09:18:33;13.90;97.50
43858;DHT22;29507;51.284;5.758;2023-04-15T09:21:12;14.60;97.30
43858;DHT22;29507;51.284;5.758;2023-04-15T09:23:40;14.90;95.60
43858;DHT22;29507;51.284;5.758;2023-04-15T09:26:06;15.50;95.10
43858;DHT22;29507;51.284;5.758;2023-04-15T09:28:33;16.20;94.70
43858;DHT22;29507;51.284;5.758;2023-04-15T09:31:05;16.40;93.70
43858;DHT22;29507;51.284;5.758;2023-04-15T09:33:31;16.10;91.80
43858;DHT22;29507;51.284;5.758;2023-04-15T09:36:00;15.60;92.00
43858;DHT22;29507;51.284;5.758;2023-04-15T09:38:27;15.40;92.70
43858;DHT22;29507;51.284;5.758;2023-04-15T09:40:53;15.40;93.20
43858;DHT22;29507;51.284;5.758;2023-04-15T09:43:18;15.40;93.20
43858;DHT22;29507;51.284;5.758;2023-04-15T09:45:52;15.30;92.80
43858;DHT22;29507;51.284;5.758;2023-04-15T09:50:45;15.30;93.40
43858;DHT22;29507;51.284;5.758;2023-04-15T09:53:15;15.30;92.80
43858;DHT22;29507;51.284;5.758;2023-04-15T09:55:58;15.30;93.00
43858;DHT22;29507;51.284;5.758;2023-04-15T09:58:30;15.60;92.00
43858;DHT22;29507;51.284;5.758;2023-04-15T10:00:57;15.80;92.30
43858;DHT22;29507;51.284;5.758;2023-04-15T10:03:30;15.80;91.30
43858;DHT22;29507;51.284;5.758;2023-04-15T10:05:59;15.60;91.20
43858;DHT22;29507;51.284;5.758;2023-04-15T10:08:30;15.60;91.00
43858;DHT22;29507;51.284;5.758;2023-04-15T10:10:57;15.50;90.70
43858;DHT22;29507;51.284;5.758;2023-04-15T10:13:25;15.50;91.90
43858;DHT22;29507;51.284;5.758;2023-04-15T10:15:57;15.50;90.80
43858;DHT22;29507;51.284;5.758;2023-04-15T10:18:25;15.40;91.10
43858;DHT22;29507;51.284;5.758;2023-04-15T10:20:52;15.40;92.00
43858;DHT22;29507;51.284;5.758;2023-04-15T10:23:19;15.50;90.90
43858;DHT22;29507;51.284;5.758;2023-04-15T10:25:46;15.60;91.40
43858;DHT22;29507;51.284;5.758;2023-04-15T10:28:14;16.00;91.60
43858;DHT22;29507;51.284;5.758;2023-04-15T10:30:42;16.20;91.90
43858;DHT22;29507;51.284;5.758;2023-04-15T10:33:08;16.10;90.80
43858;DHT22;29507;51.284;5.758;2023-04-15T10:35:35;16.00;91.00
43858;DHT22;29507;51.284;5.758;2023-04-15T10:38:01;16.00;91.00
43858;DHT22;29507;51.284;5.758;2023-04-15T10:40:30;16.20;90.30
43858;DHT22;29507;51.284;5.758;2023-04-15T10:43:00;16.20;90.00
43858;DHT22;29507;51.284;5.758;2023-04-15T10:45:31;16.20;89.40
43858;DHT22;29507;51.284;5.758;2023-04-15T10:47:57;16.00;90.10
43858;DHT22;29507;51.284;5.758;2023-04-15T10:50:26;15.70;90.00
43858;DHT22;29507;51.284;5.758;2023-04-15T10:52:53;15.70;90.60
43858;DHT22;29507;51.284;5.758;2023-04-15T10:55:21;15.80;90.10
43858;DHT22;29507;51.284;5.758;2023-04-15T11:00:29;16.00;90.00
43858;DHT22;29507;51.284;5.758;2023-04-15T11:02:56;16.40;88.50
43858;DHT22;29507;51.284;5.758;2023-04-15T11:06:05;16.40;88.90
43858;DHT22;29507;51.284;5.758;2023-04-15T11:08:12;16.70;88.40
43858;DHT22;29507;51.284;5.758;2023-04-15T11:13:14;16.90;87.60
43858;DHT22;29507;51.284;5.758;2023-04-15T11:15:49;16.60;85.40
43858;DHT22;29507;51.284;5.758;2023-04-15T11:18:16;16.20;87.10
43858;DHT22;29507;51.284;5.758;2023-04-15T11:20:46;15.70;86.60
43858;DHT22;29507;51.284;5.758;2023-04-15T11:23:19;15.50;88.90
43858;DHT22;29507;51.284;5.758;2023-04-15T11:25:45;15.20;90.20
43858;DHT22;29507;51.284;5.758;2023-04-15T11:28:12;15.10;90.60
43858;DHT22;29507;51.284;5.758;2023-04-15T11:30:38;15.20;91.00
43858;DHT22;29507;51.284;5.758;2023-04-15T11:33:08;15.40;91.10
43858;DHT22;29507;51.284;5.758;2023-04-15T11:35:35;15.50;90.80
43858;DHT22;29507;51.284;5.758;2023-04-15T11:38:05;15.40;90.30
43858;DHT22;29507;51.284;5.758;2023-04-15T11:40:33;15.20;89.80
43858;DHT22;29507;51.284;5.758;2023-04-15T11:45:31;15.10;90.30
43858;DHT22;29507;51.284;5.758;2023-04-15T11:48:09;15.20;90.40
43858;DHT22;29507;51.284;5.758;2023-04-15T11:50:36;15.40;91.20
43858;DHT22;29507;51.284;5.758;2023-04-15T11:53:04;16.00;90.40
43858;DHT22;29507;51.284;5.758;2023-04-15T11:55:50;16.60;90.70
43858;DHT22;29507;51.284;5.758;2023-04-15T11:58:17;16.60;89.90
43858;DHT22;29507;51.284;5.758;2023-04-15T12:00:54;17.10;90.00
43858;DHT22;29507;51.284;5.758;2023-04-15T12:03:32;17.30;89.60
43858;DHT22;29507;51.284;5.758;2023-04-15T12:13:53;16.50;90.50
43858;DHT22;29507;51.284;5.758;2023-04-15T12:16:20;17.40;89.70
43858;DHT22;29507;51.284;5.758;2023-04-15T12:18:49;17.50;87.30
43858;DHT22;29507;51.284;5.758;2023-04-15T12:21:20;17.80;87.40
43858;DHT22;29507;51.284;5.758;2023-04-15T12:23:50;17.70;85.90
43858;DHT22;29507;51.284;5.758;2023-04-15T12:26:16;17.30;86.20
43858;DHT22;29507;51.284;5.758;2023-04-15T12:28:42;17.20;87.50
43858;DHT22;29507;51.284;5.758;2023-04-15T12:31:09;17.20;86.70
43858;DHT22;29507;51.284;5.758;2023-04-15T12:33:34;17.70;86.70
43858;DHT22;29507;51.284;5.758;2023-04-15T12:36:00;17.80;85.80
43858;DHT22;29507;51.284;5.758;2023-04-15T12:38:26;17.30;86.10
43858;DHT22;29507;51.284;5.758;2023-04-15T12:40:52;17.10;87.00
43858;DHT22;29507;51.284;5.758;2023-04-15T12:43:18;17.40;86.70
43858;DHT22;29507;51.284;5.758;2023-04-15T12:45:44;18.00;86.50
43858;DHT22;29507;51.284;5.758;2023-04-15T12:48:10;17.70;84.80
43858;DHT22;29507;51.284;5.758;2023-04-15T12:50:35;17.10;85.80
43858;DHT22;29507;51.284;5.758;2023-04-15T12:53:02;17.40;86.00
43858;DHT22;29507;51.284;5.758;2023-04-15T12:55:28;17.30;85.80
43858;DHT22;29507;51.284;5.758;2023-04-15T12:57:55;17.10;86.10
43858;DHT22;29507;51.284;5.758;2023-04-15T13:00:21;16.90;84.50
43858;DHT22;29507;51.284;5.758;2023-04-15T13:02:47;17.20;84.10
43858;DHT22;29507;51.284;5.758;2023-04-15T13:05:13;17.50;84.10
43858;DHT22;29507;51.284;5.758;2023-04-15T13:07:40;17.80;84.30
43858;DHT22;29507;51.284;5.758;2023-04-15T13:10:06;17.80;83.70
43858;DHT22;29507;51.284;5.758;2023-04-15T13:12:32;17.90;82.90
43858;DHT22;29507;51.284;5.758;2023-04-15T13:15:02;17.60;82.30
43858;DHT22;29507;51.284;5.758;2023-04-15T13:17:28;17.00;82.80
43858;DHT22;29507;51.284;5.758;2023-04-15T13:19:54;16.70;85.70
43858;DHT22;29507;51.284;5.758;2023-04-15T13:22:19;16.80;87.00
43858;DHT22;29507;51.284;5.758;2023-04-15T13:24:45;16.60;85.70
43858;DHT22;29507;51.284;5.758;2023-04-15T13:27:11;16.60;87.20
43858;DHT22;29507;51.284;5.758;2023-04-15T13:29:37;16.80;86.40
43858;DHT22;29507;51.284;5.758;2023-04-15T13:32:05;17.30;85.20
43858;DHT22;29507;51.284;5.758;2023-04-15T13:34:30;18.40;83.80
43858;DHT22;29507;51.284;5.758;2023-04-15T13:36:56;18.80;81.30
43858;DHT22;29507;51.284;5.758;2023-04-15T13:39:22;18.10;81.70
43858;DHT22;29507;51.284;5.758;2023-04-15T13:41:47;17.20;81.30
43858;DHT22;29507;51.284;5.758;2023-04-15T13:44:13;16.60;84.20
43858;DHT22;29507;51.284;5.758;2023-04-15T13:46:39;16.90;86.40
43858;DHT22;29507;51.284;5.758;2023-04-15T13:49:06;16.90;85.00
43858;DHT22;29507;51.284;5.758;2023-04-15T13:51:32;18.30;83.80
43858;DHT22;29507;51.284;5.758;2023-04-15T13:54:00;19.50;81.10
43858;DHT22;29507;51.284;5.758;2023-04-15T13:56:26;18.80;79.50
43858;DHT22;29507;51.284;5.758;2023-04-15T13:58:51;17.70;80.20
43858;DHT22;29507;51.284;5.758;2023-04-15T14:01:19;18.40;80.90
43858;DHT22;29507;51.284;5.758;2023-04-15T14:03:44;18.20;81.40
43858;DHT22;29507;51.284;5.758;2023-04-15T14:06:10;17.90;81.20
43858;DHT22;29507;51.284;5.758;2023-04-15T14:08:36;17.50;81.70
43858;DHT22;29507;51.284;5.758;2023-04-15T14:11:01;17.20;81.30
43858;DHT22;29507;51.284;5.758;2023-04-15T14:13:27;16.90;82.10
43858;DHT22;29507;51.284;5.758;2023-04-15T14:15:53;16.70;82.40
43858;DHT22;29507;51.284;5.758;2023-04-15T14:18:19;17.30;83.30
43858;DHT22;29507;51.284;5.758;2023-04-15T14:20:45;18.50;82.10
43858;DHT22;29507;51.284;5.758;2023-04-15T14:23:10;18.40;79.70
43858;DHT22;29507;51.284;5.758;2023-04-15T14:25:36;18.00;80.40
43858;DHT22;29507;51.284;5.758;2023-04-15T14:28:03;18.70;79.30
43858;DHT22;29507;51.284;5.758;2023-04-15T14:30:29;18.10;79.70
43858;DHT22;29507;51.284;5.758;2023-04-15T14:32:55;17.30;81.10
43858;DHT22;29507;51.284;5.758;2023-04-15T14:35:20;16.80;81.80
43858;DHT22;29507;51.284;5.758;2023-04-15T14:37:46;16.60;82.00
43858;DHT22;29507;51.284;5.758;2023-04-15T14:40:11;16.60;84.10
43858;DHT22;29507;51.284;5.758;2023-04-15T14:42:37;16.40;84.10
43858;DHT22;29507;51.284;5.758;2023-04-15T14:45:03;16.70;84.30
43858;DHT22;29507;51.284;5.758;2023-04-15T14:47:28;16.90;83.80
43858;DHT22;29507;51.284;5.758;2023-04-15T14:49:55;16.90;83.10
43858;DHT22;29507;51.284;5.758;2023-04-15T14:52:21;16.50;84.20
43858;DHT22;29507;51.284;5.758;2023-04-15T14:54:46;16.00;85.50
43858;DHT22;29507;51.284;5.758;2023-04-15T14:57:12;15.70;85.90
43858;DHT22;29507;51.284;5.758;2023-04-15T14:59:37;15.60;87.10
43858;DHT22;29507;51.284;5.758;2023-04-15T15:02:03;15.40;87.00
43858;DHT22;29507;51.284;5.758;2023-04-15T15:04:28;15.40;87.50
43858;DHT22;29507;51.284;5.758;2023-04-15T15:06:54;15.40;88.20
43858;DHT22;29507;51.284;5.758;2023-04-15T15:09:20;15.30;87.20
43858;DHT22;29507;51.284;5.758;2023-04-15T15:11:48;15.10;89.10
43858;DHT22;29507;51.284;5.758;2023-04-15T15:14:14;14.90;90.00
43858;DHT22;29507;51.284;5.758;2023-04-15T15:16:40;14.90;89.50
43858;DHT22;29507;51.284;5.758;2023-04-15T15:19:05;14.90;88.30
43858;DHT22;29507;51.284;5.758;2023-04-15T15:21:31;14.90;89.60
43858;DHT22;29507;51.284;5.758;2023-04-15T15:23:57;15.10;89.50
43858;DHT22;29507;51.284;5.758;2023-04-15T15:26:23;15.30;88.90
43858;DHT22;29507;51.284;5.758;2023-04-15T15:28:48;15.10;88.40
43858;DHT22;29507;51.284;5.758;2023-04-15T15:31:15;14.80;89.50
43858;DHT22;29507;51.284;5.758;2023-04-15T15:33:41;14.70;90.40
43858;DHT22;29507;51.284;5.758;2023-04-15T15:36:06;14.80;88.80
43858;DHT22;29507;51.284;5.758;2023-04-15T15:38:32;14.70;89.50
43858;DHT22;29507;51.284;5.758;2023-04-15T15:40:58;14.60;90.60
43858;DHT22;29507;51.284;5.758;2023-04-15T15:43:23;14.40;91.00
43858;DHT22;29507;51.284;5.758;2023-04-15T15:45:49;14.10;90.80
43858;DHT22;29507;51.284;5.758;2023-04-15T15:48:16;14.00;91.10
43858;DHT22;29507;51.284;5.758;2023-04-15T15:50:44;14.10;91.00